sensor_id;sensor_type;location;lat;lon;timestamp;pressure;altitude;pressure_sealevel;temperature;humidity
5777;BME280;2914;42.668;23.346;2023-04-05T00:04:26;93999.47;;;1.07;100.00
5777;BME280;2914;42.668;23.346;2023-04-05T00:06:57;93986.48;;;1.00;100.00
5777;BME280;2914;42.668;23.346;2023-04-05T00:09:26;93988.60;;;1.08;100.00
5777;BME280;2914;42.668;23.346;2023-04-05T00:11:55;93995.57;;;1.07;100.00
5777;BME280;2914;42.668;23.346;2023-04-05T00:14:24;93991.77;;;1.26;100.00
5777;BME280;2914;42.668;23.346;2023-04-05T00:16:53;93990.88;;;1.20;100.00
5777;BME280;2914;42.668;23.346;2023-04-05T00:19:22;93988.78;;;1.32;100.00
5777;BME280;2914;42.668;23.346;2023-04-05T00:21:51;93988.28;;;1.20;100.00
5777;BME280;2914;42.668;23.346;2023-04-05T00:24:21;93995.80;;;1.17;100.00
5777;BME280;2914;42.668;23.346;2023-04-05T00:26:51;93986.72;;;1.17;100.00
5777;BME280;2914;42.668;23.346;2023-04-05T00:29:20;93996.66;;;1.30;100.00
5777;BME280;2914;42.668;23.346;2023-04-05T00:31:49;93988.14;;;1.48;100.00
5777;BME280;2914;42.668;23.346;2023-04-05T00:34:18;93990.31;;;1.42;100.00
5777;BME280;2914;42.668;23.346;2023-04-05T00:36:47;93999.18;;;1.32;100.00
5777;BME280;2914;42.668;23.346;2023-04-05T00:39:16;93993.56;;;1.38;100.00
5777;BME280;2914;42.668;23.346;2023-04-05T00:41:45;93989.83;;;1.42;100.00
5777;BME280;2914;42.668;23.346;2023-04-05T00:44:14;93998.39;;;1.37;100.00
5777;BME280;2914;42.668;23.346;2023-04-05T00:46:44;94005.69;;;1.25;100.00
5777;BME280;2914;42.668;23.346;2023-04-05T00:49:13;94000.97;;;1.24;100.00
5777;BME280;2914;42.668;23.346;2023-04-05T00:51:42;94006.20;;;1.17;100.00
5777;BME280;2914;42.668;23.346;2023-04-05T00:54:13;93994.85;;;1.18;100.00
5777;BME280;2914;42.668;23.346;2023-04-05T00:56:42;93998.68;;;1.12;100.00
5777;BME280;2914;42.668;23.346;2023-04-05T00:59:12;94002.58;;;1.20;100.00
5777;BME280;2914;42.668;23.346;2023-04-05T01:01:41;94005.84;;;1.36;100.00
5777;BME280;2914;42.668;23.346;2023-04-05T01:04:11;94005.09;;;1.34;100.00
5777;BME280;2914;42.668;23.346;2023-04-05T01:06:55;94000.76;;;1.27;100.00
5777;BME280;2914;42.668;23.346;2023-04-05T01:14:55;94004.60;;;1.42;100.00
5777;BME280;2914;42.668;23.346;2023-04-05T01:17:26;94012.30;;;1.43;100.00
5777;BME280;2914;42.668;23.346;2023-04-05T01:19:58;94003.73;;;1.48;100.00
5777;BME280;2914;42.668;23.346;2023-04-05T01:23:06;94009.22;;;1.44;100.00
5777;BME280;2914;42.668;23.346;2023-04-05T01:25:56;94004.44;;;1.38;100.00
5777;BME280;2914;42.668;23.346;2023-04-05T01:28:39;94002.19;;;1.39;100.00
5777;BME280;2914;42.668;23.346;2023-04-05T01:31:08;94011.55;;;1.41;100.00
5777;BME280;2914;42.668;23.346;2023-04-05T01:33:40;94012.79;;;1.35;100.00
5777;BME280;2914;42.668;23.346;2023-04-05T01:36:15;94009.13;;;1.25;100.00
5777;BME280;2914;42.668;23.346;2023-04-05T01:38:47;94018.36;;;1.37;100.00
5777;BME280;2914;42.668;23.346;2023-04-05T01:41:16;94001.86;;;1.50;100.00
5777;BME280;2914;42.668;23.346;2023-04-05T01:43:45;93998.77;;;1.38;100.00
5777;BME280;2914;42.668;23.346;2023-04-05T01:46:14;94004.38;;;1.32;100.00
5777;BME280;2914;42.668;23.346;2023-04-05T01:48:43;94009.64;;;1.30;100.00
5777;BME280;2914;42.668;23.346;2023-04-05T01:51:13;94007.38;;;1.39;100.00
5777;BME280;2914;42.668;23.346;2023-04-05T01:53:42;94006.89;;;1.46;100.00
5777;BME280;2914;42.668;23.346;2023-04-05T01:56:11;94013.44;;;1.39;100.00
5777;BME280;2914;42.668;23.346;2023-04-05T01:58:40;94018.22;;;1.45;100.00
5777;BME280;2914;42.668;23.346;2023-04-05T02:01:09;94005.05;;;1.41;100.00
5777;BME280;2914;42.668;23.346;2023-04-05T02:03:38;94007.73;;;1.27;100.00
5777;BME280;2914;42.668;23.346;2023-04-05T02:06:07;94015.05;;;1.27;100.00
5777;BME280;2914;42.668;23.346;2023-04-05T02:08:36;94012.99;;;1.32;100.00
5777;BME280;2914;42.668;23.346;2023-04-05T02:11:06;94024.71;;;1.45;100.00
5777;BME280;2914;42.668;23.346;2023-04-05T02:13:35;94020.42;;;1.51;100.00
5777;BME280;2914;42.668;23.346;2023-04-05T02:16:04;94011.88;;;1.49;100.00
5777;BME280;2914;42.668;23.346;2023-04-05T02:18:33;94019.39;;;1.34;100.00
5777;BME280;2914;42.668;23.346;2023-04-05T02:21:04;94015.98;;;1.46;100.00
5777;BME280;2914;42.668;23.346;2023-04-05T02:23:37;94011.49;;;1.56;100.00
5777;BME280;2914;42.668;23.346;2023-04-05T02:26:05;94013.94;;;1.64;99.93
5777;BME280;2914;42.668;23.346;2023-04-05T02:28:34;94010.09;;;1.70;99.99
5777;BME280;2914;42.668;23.346;2023-04-05T02:31:08;94024.44;;;1.63;99.83
5777;BME280;2914;42.668;23.346;2023-04-05T02:33:38;94023.63;;;1.62;99.81
5777;BME280;2914;42.668;23.346;2023-04-05T02:36:09;94024.22;;;1.73;99.82
5777;BME280;2914;42.668;23.346;2023-04-05T02:38:39;94020.27;;;1.80;99.51
5777;BME280;2914;42.668;23.346;2023-04-05T02:41:09;94019.25;;;1.76;99.90
5777;BME280;2914;42.668;23.346;2023-04-05T02:43:39;94015.62;;;1.78;100.00
5777;BME280;2914;42.668;23.346;2023-04-05T02:46:08;94019.78;;;1.81;100.00
5777;BME280;2914;42.668;23.346;2023-04-05T02:48:37;94014.30;;;1.85;99.74
5777;BME280;2914;42.668;23.346;2023-04-05T02:53:45;94018.09;;;2.00;99.35
5777;BME280;2914;42.668;23.346;2023-04-05T02:56:14;94016.42;;;1.86;98.95
5777;BME280;2914;42.668;23.346;2023-04-05T02:58:43;94013.61;;;1.76;98.87
5777;BME280;2914;42.668;23.346;2023-04-05T03:01:14;94012.09;;;1.66;99.90
5777;BME280;2914;42.668;23.346;2023-04-05T03:03:44;94009.97;;;1.79;100.00
5777;BME280;2914;42.668;23.346;2023-04-05T03:06:13;94011.72;;;1.65;99.91
5777;BME280;2914;42.668;23.346;2023-04-05T03:08:43;94009.67;;;1.63;100.00
5777;BME280;2914;42.668;23.346;2023-04-05T03:11:14;94017.89;;;1.70;99.94
5777;BME280;2914;42.668;23.346;2023-04-05T03:13:43;94007.17;;;1.62;100.00
5777;BME280;2914;42.668;23.346;2023-04-05T03:16:12;94009.92;;;1.73;99.95
5777;BME280;2914;42.668;23.346;2023-04-05T03:18:41;94009.83;;;1.67;99.96
5777;BME280;2914;42.668;23.346;2023-04-05T03:21:10;94008.03;;;1.75;99.89
5777;BME280;2914;42.668;23.346;2023-04-05T03:23:40;94014.27;;;1.73;99.89
5777;BME280;2914;42.668;23.346;2023-04-05T03:26:09;94014.80;;;1.91;99.76
5777;BME280;2914;42.668;23.346;2023-04-05T03:28:40;94015.78;;;1.82;99.93
5777;BME280;2914;42.668;23.346;2023-04-05T03:31:11;94007.97;;;1.69;99.89
5777;BME280;2914;42.668;23.346;2023-04-05T03:33:41;94008.80;;;1.70;100.00
5777;BME280;2914;42.668;23.346;2023-04-05T03:36:10;94016.25;;;1.69;100.00
5777;BME280;2914;42.668;23.346;2023-04-05T03:41:21;94010.58;;;1.69;100.00
5777;BME280;2914;42.668;23.346;2023-04-05T03:43:50;94012.85;;;1.61;100.00
5777;BME280;2914;42.668;23.346;2023-04-05T03:46:19;94018.03;;;1.48;100.00
5777;BME280;2914;42.668;23.346;2023-04-05T03:48:48;94017.52;;;1.56;100.00
5777;BME280;2914;42.668;23.346;2023-04-05T03:51:17;94024.27;;;1.46;100.00
5777;BME280;2914;42.668;23.346;2023-04-05T03:53:46;94027.13;;;1.48;100.00
5777;BME280;2914;42.668;23.346;2023-04-05T03:56:15;94023.91;;;1.58;100.00
5777;BME280;2914;42.668;23.346;2023-04-05T03:58:45;94022.81;;;1.55;100.00
5777;BME280;2914;42.668;23.346;2023-04-05T04:01:15;94033.42;;;1.51;100.00
5777;BME280;2914;42.668;23.346;2023-04-05T04:03:45;94028.45;;;1.61;100.00
5777;BME280;2914;42.668;23.346;2023-04-05T04:06:14;94039.66;;;1.49;100.00
5777;BME280;2914;42.668;23.346;2023-04-05T04:08:43;94034.19;;;1.46;100.00
5777;BME280;2914;42.668;23.346;2023-04-05T04:13:50;94039.22;;;1.62;100.00
5777;BME280;2914;42.668;23.346;2023-04-05T04:18:58;94037.83;;;1.77;100.00
5777;BME280;2914;42.668;23.346;2023-04-05T04:24:11;94048.13;;;1.78;100.00
5777;BME280;2914;42.668;23.346;2023-04-05T04:29:26;94046.98;;;1.69;100.00
5777;BME280;2914;42.668;23.346;2023-04-05T04:31:59;94043.13;;;1.55;100.00
5777;BME280;2914;42.668;23.346;2023-04-05T04:34:28;94038.04;;;1.53;100.00
5777;BME280;2914;42.668;23.346;2023-04-05T04:36:59;94043.39;;;1.65;100.00
5777;BME280;2914;42.668;23.346;2023-04-05T04:39:28;94046.66;;;1.74;100.00
5777;BME280;2914;42.668;23.346;2023-04-05T04:41:59;94044.59;;;1.79;100.00
5777;BME280;2914;42.668;23.346;2023-04-05T04:44:28;94042.16;;;1.83;100.00
5777;BME280;2914;42.668;23.346;2023-04-05T04:49:34;94043.95;;;1.63;100.00
5777;BME280;2914;42.668;23.346;2023-04-05T04:52:03;94046.16;;;1.69;100.00
5777;BME280;2914;42.668;23.346;2023-04-05T04:54:34;94046.71;;;1.67;100.00
5777;BME280;2914;42.668;23.346;2023-04-05T04:57:03;94045.83;;;1.61;100.00
5777;BME280;2914;42.668;23.346;2023-04-05T04:59:32;94048.66;;;1.63;100.00
5777;BME280;2914;42.668;23.346;2023-04-05T05:02:01;94045.58;;;1.71;100.00
5777;BME280;2914;42.668;23.346;2023-04-05T05:04:33;94051.41;;;1.75;100.00
5777;BME280;2914;42.668;23.346;2023-04-05T05:07:06;94055.37;;;1.80;100.00
5777;BME280;2914;42.668;23.346;2023-04-05T05:09:36;94046.16;;;1.82;100.00
5777;BME280;2914;42.668;23.346;2023-04-05T05:12:06;94053.92;;;1.89;100.00
5777;BME280;2914;42.668;23.346;2023-04-05T05:14:35;94046.38;;;1.79;100.00
5777;BME280;2914;42.668;23.346;2023-04-05T05:17:06;94048.70;;;1.56;100.00
5777;BME280;2914;42.668;23.346;2023-04-05T05:19:36;94058.73;;;1.55;100.00
5777;BME280;2914;42.668;23.346;2023-04-05T05:22:05;94062.89;;;1.65;100.00
5777;BME280;2914;42.668;23.346;2023-04-05T05:24:42;94060.86;;;1.76;100.00
5777;BME280;2914;42.668;23.346;2023-04-05T05:27:14;94064.64;;;1.64;100.00
5777;BME280;2914;42.668;23.346;2023-04-05T05:29:43;94055.25;;;1.49;100.00
5777;BME280;2914;42.668;23.346;2023-04-05T05:32:12;94064.95;;;1.60;100.00
5777;BME280;2914;42.668;23.346;2023-04-05T05:34:43;94065.34;;;1.53;100.00
5777;BME280;2914;42.668;23.346;2023-04-05T05:37:12;94065.44;;;1.52;99.15
5777;BME280;2914;42.668;23.346;2023-04-05T05:39:41;94069.10;;;1.42;99.44
5777;BME280;2914;42.668;23.346;2023-04-05T05:44:55;94065.06;;;1.51;100.00
5777;BME280;2914;42.668;23.346;2023-04-05T05:47:26;94059.06;;;1.63;99.80
5777;BME280;2914;42.668;23.346;2023-04-05T05:49:55;94057.69;;;1.65;99.95
5777;BME280;2914;42.668;23.346;2023-04-05T05:52:25;94052.34;;;1.74;99.52
5777;BME280;2914;42.668;23.346;2023-04-05T05:54:54;94058.35;;;1.81;99.60
5777;BME280;2914;42.668;23.346;2023-04-05T06:00:00;94058.41;;;2.13;98.96
5777;BME280;2914;42.668;23.346;2023-04-05T06:02:31;94054.45;;;2.07;97.44
5777;BME280;2914;42.668;23.346;2023-04-05T06:05:00;94047.20;;;1.92;96.80
5777;BME280;2914;42.668;23.346;2023-04-05T06:10:08;94059.69;;;2.20;96.58
5777;BME280;2914;42.668;23.346;2023-04-05T06:15:22;94072.69;;;2.33;95.46
5777;BME280;2914;42.668;23.346;2023-04-05T06:17:51;94065.69;;;2.59;100.00
5777;BME280;2914;42.668;23.346;2023-04-05T06:20:20;94070.46;;;2.78;97.33
5777;BME280;2914;42.668;23.346;2023-04-05T06:22:49;94070.01;;;2.66;93.63
5777;BME280;2914;42.668;23.346;2023-04-05T06:25:19;94073.39;;;2.61;91.70
5777;BME280;2914;42.668;23.346;2023-04-05T06:27:48;94069.53;;;2.66;92.28
5777;BME280;2914;42.668;23.346;2023-04-05T06:30:17;94072.92;;;2.74;91.32
5777;BME280;2914;42.668;23.346;2023-04-05T06:32:46;94082.03;;;2.74;89.96
5777;BME280;2914;42.668;23.346;2023-04-05T06:35:17;94078.72;;;2.72;89.10
5777;BME280;2914;42.668;23.346;2023-04-05T06:37:46;94080.84;;;2.73;88.48
5777;BME280;2914;42.668;23.346;2023-04-05T06:40:16;94084.64;;;2.74;88.99
5777;BME280;2914;42.668;23.346;2023-04-05T06:42:45;94085.16;;;2.66;89.39
5777;BME280;2914;42.668;23.346;2023-04-05T06:45:14;94091.30;;;2.78;89.17
5777;BME280;2914;42.668;23.346;2023-04-05T06:47:45;94084.97;;;2.69;89.08
5777;BME280;2914;42.668;23.346;2023-04-05T06:50:14;94092.21;;;2.59;89.25
5777;BME280;2914;42.668;23.346;2023-04-05T06:52:43;94098.13;;;2.61;89.31
5777;BME280;2914;42.668;23.346;2023-04-05T06:55:12;94098.70;;;2.71;89.24
5777;BME280;2914;42.668;23.346;2023-04-05T06:57:41;94098.04;;;2.94;89.70
5777;BME280;2914;42.668;23.346;2023-04-05T07:00:13;94106.52;;;3.03;88.57
5777;BME280;2914;42.668;23.346;2023-04-05T07:02:43;94106.23;;;2.95;88.27
5777;BME280;2914;42.668;23.346;2023-04-05T07:05:12;94118.02;;;2.87;86.99
5777;BME280;2914;42.668;23.346;2023-04-05T07:07:42;94118.28;;;2.77;85.89
5777;BME280;2914;42.668;23.346;2023-04-05T07:10:12;94123.97;;;2.77;85.64
5777;BME280;2914;42.668;23.346;2023-04-05T07:12:41;94112.91;;;2.73;85.56
5777;BME280;2914;42.668;23.346;2023-04-05T07:15:11;94118.65;;;2.78;86.02
5777;BME280;2914;42.668;23.346;2023-04-05T07:17:40;94120.99;;;2.76;86.30
5777;BME280;2914;42.668;23.346;2023-04-05T07:20:11;94118.09;;;2.80;86.41
5777;BME280;2914;42.668;23.346;2023-04-05T07:22:40;94128.55;;;2.73;86.80
5777;BME280;2914;42.668;23.346;2023-04-05T07:25:10;94123.24;;;2.62;87.06
5777;BME280;2914;42.668;23.346;2023-04-05T07:27:39;94130.84;;;2.65;86.78
5777;BME280;2914;42.668;23.346;2023-04-05T07:30:10;94135.16;;;2.71;86.34
5777;BME280;2914;42.668;23.346;2023-04-05T07:32:39;94137.05;;;2.69;85.66
5777;BME280;2914;42.668;23.346;2023-04-05T07:35:09;94136.42;;;2.66;85.79
5777;BME280;2914;42.668;23.346;2023-04-05T07:37:37;94140.48;;;2.70;85.60
5777;BME280;2914;42.668;23.346;2023-04-05T07:42:52;94139.37;;;2.80;87.73
5777;BME280;2914;42.668;23.346;2023-04-05T07:45:21;94142.33;;;2.94;87.49
5777;BME280;2914;42.668;23.346;2023-04-05T07:47:50;94140.31;;;2.92;87.99
5777;BME280;2914;42.668;23.346;2023-04-05T07:50:20;94140.58;;;2.94;87.78
5777;BME280;2914;42.668;23.346;2023-04-05T07:52:49;94148.66;;;2.97;86.40
5777;BME280;2914;42.668;23.346;2023-04-05T07:55:18;94160.27;;;2.85;84.96
5777;BME280;2914;42.668;23.346;2023-04-05T07:57:48;94162.67;;;2.76;84.64
5777;BME280;2914;42.668;23.346;2023-04-05T08:00:18;94157.69;;;2.60;85.67
5777;BME280;2914;42.668;23.346;2023-04-05T08:02:48;94163.98;;;2.63;85.62
5777;BME280;2914;42.668;23.346;2023-04-05T08:05:17;94167.88;;;2.63;87.30
5777;BME280;2914;42.668;23.346;2023-04-05T08:07:46;94164.43;;;2.62;88.00
5777;BME280;2914;42.668;23.346;2023-04-05T08:10:15;94164.95;;;2.93;93.88
5777;BME280;2914;42.668;23.346;2023-04-05T08:12:44;94173.13;;;3.07;87.87
5777;BME280;2914;42.668;23.346;2023-04-05T08:15:13;94171.71;;;3.09;85.73
5777;BME280;2914;42.668;23.346;2023-04-05T08:17:43;94176.38;;;2.85;84.65
5777;BME280;2914;42.668;23.346;2023-04-05T08:20:13;94175.39;;;2.80;83.62
5777;BME280;2914;42.668;23.346;2023-04-05T08:22:42;94176.77;;;2.79;83.20
5777;BME280;2914;42.668;23.346;2023-04-05T08:25:11;94182.10;;;2.64;83.39
5777;BME280;2914;42.668;23.346;2023-04-05T08:27:40;94182.20;;;2.76;83.31
5777;BME280;2914;42.668;23.346;2023-04-05T08:30:11;94185.34;;;2.68;84.80
5777;BME280;2914;42.668;23.346;2023-04-05T08:32:40;94185.42;;;2.66;85.66
5777;BME280;2914;42.668;23.346;2023-04-05T08:35:09;94173.72;;;2.79;85.95
5777;BME280;2914;42.668;23.346;2023-04-05T08:37:38;94178.61;;;2.84;85.28
5777;BME280;2914;42.668;23.346;2023-04-05T08:40:09;94183.98;;;2.75;85.42
5777;BME280;2914;42.668;23.346;2023-04-05T08:42:42;94188.20;;;2.83;85.59
5777;BME280;2914;42.668;23.346;2023-04-05T08:45:13;94188.92;;;2.85;86.77
5777;BME280;2914;42.668;23.346;2023-04-05T08:47:44;94180.81;;;2.90;86.72
5777;BME280;2914;42.668;23.346;2023-04-05T08:50:13;94192.83;;;2.85;86.98
5777;BME280;2914;42.668;23.346;2023-04-05T08:52:43;94193.66;;;2.99;87.80
5777;BME280;2914;42.668;23.346;2023-04-05T08:55:16;94204.50;;;3.05;87.44
5777;BME280;2914;42.668;23.346;2023-04-05T08:57:47;94192.63;;;3.01;88.05
5777;BME280;2914;42.668;23.346;2023-04-05T09:00:18;94195.63;;;2.95;88.45
5777;BME280;2914;42.668;23.346;2023-04-05T09:02:51;94205.03;;;3.11;88.33
5777;BME280;2914;42.668;23.346;2023-04-05T09:05:21;94204.67;;;3.28;88.44
5777;BME280;2914;42.668;23.346;2023-04-05T09:07:51;94206.09;;;3.39;87.75
5777;BME280;2914;42.668;23.346;2023-04-05T09:10:21;94209.98;;;3.08;88.28
5777;BME280;2914;42.668;23.346;2023-04-05T09:12:52;94216.34;;;3.04;88.91
5777;BME280;2914;42.668;23.346;2023-04-05T09:15:21;94215.33;;;2.99;88.14
5777;BME280;2914;42.668;23.346;2023-04-05T09:17:54;94219.98;;;3.01;87.12
5777;BME280;2914;42.668;23.346;2023-04-05T09:20:24;94204.72;;;3.02;87.18
5777;BME280;2914;42.668;23.346;2023-04-05T09:25:37;94212.19;;;3.20;91.37
5777;BME280;2914;42.668;23.346;2023-04-05T09:28:06;94210.24;;;3.11;88.50
5777;BME280;2914;42.668;23.346;2023-04-05T09:30:36;94211.44;;;3.12;88.96
5777;BME280;2914;42.668;23.346;2023-04-05T09:33:07;94212.78;;;3.18;87.24
5777;BME280;2914;42.668;23.346;2023-04-05T09:35:37;94209.33;;;3.30;85.91
5777;BME280;2914;42.668;23.346;2023-04-05T09:38:06;94207.13;;;3.24;85.20
5777;BME280;2914;42.668;23.346;2023-04-05T09:43:40;94196.52;;;3.46;85.86
5777;BME280;2914;42.668;23.346;2023-04-05T09:46:29;94204.89;;;3.38;84.78
5777;BME280;2914;42.668;23.346;2023-04-05T09:48:58;94190.89;;;3.39;83.54
5777;BME280;2914;42.668;23.346;2023-04-05T09:51:36;94192.45;;;3.42;83.73
5777;BME280;2914;42.668;23.346;2023-04-05T09:54:06;94200.27;;;3.54;83.71
5777;BME280;2914;42.668;23.346;2023-04-05T09:56:37;94190.44;;;3.58;84.04
5777;BME280;2914;42.668;23.346;2023-04-05T09:59:08;94198.34;;;3.51;82.89
5777;BME280;2914;42.668;23.346;2023-04-05T10:01:39;94181.44;;;3.25;81.79
5777;BME280;2914;42.668;23.346;2023-04-05T10:04:08;94211.00;;;3.18;81.62
5777;BME280;2914;42.668;23.346;2023-04-05T10:06:39;94203.98;;;3.13;81.44
5777;BME280;2914;42.668;23.346;2023-04-05T10:09:09;94201.83;;;3.13;82.59
5777;BME280;2914;42.668;23.346;2023-04-05T10:11:39;94203.19;;;3.31;82.45
5777;BME280;2914;42.668;23.346;2023-04-05T10:14:10;94211.56;;;3.42;81.78
5777;BME280;2914;42.668;23.346;2023-04-05T10:16:43;94210.73;;;3.60;81.44
5777;BME280;2914;42.668;23.346;2023-04-05T10:19:16;94213.24;;;3.49;80.18
5777;BME280;2914;42.668;23.346;2023-04-05T10:21:47;94212.94;;;3.53;79.47
5777;BME280;2914;42.668;23.346;2023-04-05T10:24:21;94210.15;;;3.31;77.68
5777;BME280;2914;42.668;23.346;2023-04-05T10:26:58;94219.08;;;3.21;77.69
5777;BME280;2914;42.668;23.346;2023-04-05T10:29:29;94218.78;;;3.26;77.82
5777;BME280;2914;42.668;23.346;2023-04-05T10:32:03;94213.20;;;3.25;78.64
5777;BME280;2914;42.668;23.346;2023-04-05T10:34:38;94216.37;;;3.35;78.16
5777;BME280;2914;42.668;23.346;2023-04-05T10:37:06;94219.58;;;3.39;77.82
5777;BME280;2914;42.668;23.346;2023-04-05T10:39:38;94210.28;;;3.16;77.22
5777;BME280;2914;42.668;23.346;2023-04-05T10:42:12;94211.96;;;3.17;77.29
5777;BME280;2914;42.668;23.346;2023-04-05T10:44:42;94215.66;;;3.20;77.55
5777;BME280;2914;42.668;23.346;2023-04-05T10:47:14;94217.95;;;3.12;78.28
5777;BME280;2914;42.668;23.346;2023-04-05T10:49:46;94216.58;;;3.19;78.70
5777;BME280;2914;42.668;23.346;2023-04-05T10:52:17;94211.49;;;3.36;78.86
5777;BME280;2914;42.668;23.346;2023-04-05T10:54:49;94221.77;;;3.45;78.75
5777;BME280;2914;42.668;23.346;2023-04-05T10:57:19;94221.63;;;3.41;78.03
5777;BME280;2914;42.668;23.346;2023-04-05T10:59:50;94229.22;;;3.44;77.38
5777;BME280;2914;42.668;23.346;2023-04-05T11:02:20;94211.91;;;3.43;77.69
5777;BME280;2914;42.668;23.346;2023-04-05T11:07:47;94226.05;;;3.46;77.12
5777;BME280;2914;42.668;23.346;2023-04-05T11:10:18;94232.77;;;3.43;77.64
5777;BME280;2914;42.668;23.346;2023-04-05T11:13:06;94227.06;;;3.38;78.18
5777;BME280;2914;42.668;23.346;2023-04-05T11:18:10;94235.33;;;3.37;78.11
5777;BME280;2914;42.668;23.346;2023-04-05T11:20:47;94236.63;;;3.50;77.94
5777;BME280;2914;42.668;23.346;2023-04-05T11:23:19;94236.94;;;3.46;76.85
5777;BME280;2914;42.668;23.346;2023-04-05T11:25:51;94234.95;;;3.49;77.44
5777;BME280;2914;42.668;23.346;2023-04-05T11:28:33;94227.47;;;3.63;75.51
5777;BME280;2914;42.668;23.346;2023-04-05T11:31:11;94229.63;;;3.51;74.95
5777;BME280;2914;42.668;23.346;2023-04-05T11:36:38;94229.03;;;3.66;75.58
5777;BME280;2914;42.668;23.346;2023-04-05T11:39:29;94237.72;;;3.53;75.55
5777;BME280;2914;42.668;23.346;2023-04-05T11:42:04;94235.22;;;3.52;76.01
5777;BME280;2914;42.668;23.346;2023-04-05T11:44:45;94231.60;;;3.60;75.58
5777;BME280;2914;42.668;23.346;2023-04-05T11:47:16;94235.84;;;3.74;75.85
5777;BME280;2914;42.668;23.346;2023-04-05T11:49:49;94227.75;;;3.71;75.10
5777;BME280;2914;42.668;23.346;2023-04-05T11:52:19;94235.95;;;3.72;75.33
5777;BME280;2914;42.668;23.346;2023-04-05T11:54:48;94232.86;;;3.73;74.91
5777;BME280;2914;42.668;23.346;2023-04-05T11:57:21;94235.25;;;3.76;74.42
5777;BME280;2914;42.668;23.346;2023-04-05T11:59:51;94215.11;;;4.02;88.07
5777;BME280;2914;42.668;23.346;2023-04-05T12:02:21;94210.30;;;4.80;95.46
5777;BME280;2914;42.668;23.346;2023-04-05T12:04:54;94221.02;;;4.88;82.50
5777;BME280;2914;42.668;23.346;2023-04-05T12:07:26;94226.88;;;4.62;74.40
5777;BME280;2914;42.668;23.346;2023-04-05T12:10:03;94222.02;;;4.57;72.37
5777;BME280;2914;42.668;23.346;2023-04-05T12:12:35;94236.28;;;4.35;73.42
5777;BME280;2914;42.668;23.346;2023-04-05T12:15:07;94233.86;;;4.20;74.53
5777;BME280;2914;42.668;23.346;2023-04-05T12:17:45;94235.48;;;4.40;74.88
5777;BME280;2914;42.668;23.346;2023-04-05T12:20:18;94231.61;;;4.27;75.55
5777;BME280;2914;42.668;23.346;2023-04-05T12:22:48;94231.84;;;4.24;76.20
5777;BME280;2914;42.668;23.346;2023-04-05T12:25:20;94224.72;;;4.20;76.51
5777;BME280;2914;42.668;23.346;2023-04-05T12:27:49;94226.27;;;3.99;77.34
5777;BME280;2914;42.668;23.346;2023-04-05T12:30:19;94220.45;;;4.01;77.88
5777;BME280;2914;42.668;23.346;2023-04-05T12:32:50;94214.56;;;4.10;77.01
5777;BME280;2914;42.668;23.346;2023-04-05T12:35:21;94216.24;;;4.11;76.40
5777;BME280;2914;42.668;23.346;2023-04-05T12:37:51;94217.04;;;4.06;76.86
5777;BME280;2914;42.668;23.346;2023-04-05T12:40:23;94225.63;;;4.14;77.89
5777;BME280;2914;42.668;23.346;2023-04-05T12:42:52;94221.53;;;4.28;78.57
5777;BME280;2914;42.668;23.346;2023-04-05T12:45:24;94227.14;;;4.35;78.25
5777;BME280;2914;42.668;23.346;2023-04-05T12:47:56;94217.57;;;4.17;77.82
5777;BME280;2914;42.668;23.346;2023-04-05T12:50:30;94222.05;;;4.15;77.98
5777;BME280;2914;42.668;23.346;2023-04-05T12:53:00;94226.22;;;4.17;78.14
5777;BME280;2914;42.668;23.346;2023-04-05T12:55:31;94217.41;;;4.07;76.17
5777;BME280;2914;42.668;23.346;2023-04-05T12:58:00;94233.44;;;3.89;76.68
5777;BME280;2914;42.668;23.346;2023-04-05T13:00:30;94227.70;;;3.84;77.40
5777;BME280;2914;42.668;23.346;2023-04-05T13:03:00;94225.15;;;3.71;78.12
5777;BME280;2914;42.668;23.346;2023-04-05T13:08:07;94230.84;;;3.71;79.04
5777;BME280;2914;42.668;23.346;2023-04-05T13:10:36;94233.98;;;3.63;78.60
5777;BME280;2914;42.668;23.346;2023-04-05T13:13:05;94231.33;;;3.76;77.86
5777;BME280;2914;42.668;23.346;2023-04-05T13:15:34;94228.45;;;3.86;79.17
5777;BME280;2914;42.668;23.346;2023-04-05T13:18:04;94232.61;;;3.70;76.56
5777;BME280;2914;42.668;23.346;2023-04-05T13:20:33;94242.20;;;3.88;76.62
5777;BME280;2914;42.668;23.346;2023-04-05T13:23:02;94237.55;;;4.05;76.16
5777;BME280;2914;42.668;23.346;2023-04-05T13:25:33;94237.58;;;3.86;74.53
5777;BME280;2914;42.668;23.346;2023-04-05T13:28:02;94231.80;;;3.94;74.28
5777;BME280;2914;42.668;23.346;2023-04-05T13:30:31;94235.05;;;3.79;75.09
5777;BME280;2914;42.668;23.346;2023-04-05T13:35:38;94230.17;;;3.80;74.96
5777;BME280;2914;42.668;23.346;2023-04-05T13:38:07;94220.13;;;4.05;88.33
5777;BME280;2914;42.668;23.346;2023-04-05T13:43:14;94228.13;;;3.97;75.92
5777;BME280;2914;42.668;23.346;2023-04-05T13:45:43;94226.52;;;3.83;75.36
5777;BME280;2914;42.668;23.346;2023-04-05T13:50:55;94228.84;;;3.74;76.38
5777;BME280;2914;42.668;23.346;2023-04-05T13:56:02;94234.53;;;3.74;77.01
5777;BME280;2914;42.668;23.346;2023-04-05T13:58:33;94236.44;;;3.78;77.25
5777;BME280;2914;42.668;23.346;2023-04-05T14:03:42;94239.98;;;3.71;77.34
5777;BME280;2914;42.668;23.346;2023-04-05T14:06:13;94237.38;;;3.71;78.12
5777;BME280;2914;42.668;23.346;2023-04-05T14:08:42;94240.28;;;3.66;78.58
5777;BME280;2914;42.668;23.346;2023-04-05T14:11:11;94233.65;;;3.68;78.65
5777;BME280;2914;42.668;23.346;2023-04-05T14:13:40;94242.14;;;3.77;78.61
5777;BME280;2914;42.668;23.346;2023-04-05T14:16:09;94253.95;;;3.70;77.98
5777;BME280;2914;42.668;23.346;2023-04-05T14:21:19;94244.64;;;3.47;78.16
5777;BME280;2914;42.668;23.346;2023-04-05T14:23:49;94253.13;;;3.38;78.53
5777;BME280;2914;42.668;23.346;2023-04-05T14:26:19;94252.28;;;3.37;79.40
5777;BME280;2914;42.668;23.346;2023-04-05T14:28:49;94254.77;;;3.39;78.81
5777;BME280;2914;42.668;23.346;2023-04-05T14:31:18;94255.47;;;3.22;79.36
5777;BME280;2914;42.668;23.346;2023-04-05T14:36:31;94256.64;;;3.50;78.82
5777;BME280;2914;42.668;23.346;2023-04-05T14:41:44;94248.44;;;3.04;80.30
5777;BME280;2914;42.668;23.346;2023-04-05T14:44:15;94261.30;;;3.00;80.61
5777;BME280;2914;42.668;23.346;2023-04-05T14:46:44;94258.70;;;3.00;81.16
5777;BME280;2914;42.668;23.346;2023-04-05T14:49:13;94243.39;;;2.96;80.70
5777;BME280;2914;42.668;23.346;2023-04-05T14:51:43;94262.98;;;2.88;81.08
5777;BME280;2914;42.668;23.346;2023-04-05T14:54:12;94268.24;;;3.07;80.47